Time;durP1;ratioP1;P1;durP2;ratioP2;P2;SDS_P1;SDS_P2;PMS_P1;PMS_P2;Temp;Humidity;BMP_temperature;BMP_pressure;BME280_temperature;BME280_humidity;BME280_pressure;Samples;Min_cycle;Max_cycle;Signal;HPM_P1;HPM_P2
2021/04/10 00:01:37;;;;;;;9.13;3.97;;;13.50;71.70;;;;;;5080074;28;20417;-88
2021/04/10 00:04:05;;;;;;;6.93;3.47;;;13.30;71.60;;;;;;5057773;28;20453;-85
2021/04/10 00:06:32;;;;;;;8.80;3.23;;;13.40;71.80;;;;;;5064415;28;20459;-86
2021/04/10 00:08:59;;;;;;;5.87;3.57;;;13.30;71.80;;;;;;5056811;28;20945;-87
2021/04/10 00:11:26;;;;;;;6.13;3.53;;;13.20;71.00;;;;;;5054386;28;20810;-88
2021/04/10 00:13:52;;;;;;;8.10;3.23;;;13.10;71.70;;;;;;5056453;28;21001;-88
2021/04/10 00:16:19;;;;;;;5.60;2.50;;;13.00;72.20;;;;;;5065814;28;20566;-87
2021/04/10 00:18:45;;;;;;;6.47;2.73;;;13.00;72.80;;;;;;5057235;28;20500;-86
2021/04/10 00:21:13;;;;;;;6.47;3.93;;;13.10;72.70;;;;;;5074310;28;20716;-87
2021/04/10 00:23:43;;;;;;;8.97;3.63;;;13.00;73.50;;;;;;5076884;28;20454;-89
2021/04/10 00:26:10;;;;;;;6.87;2.63;;;13.10;73.30;;;;;;5077785;28;20419;-89
2021/04/10 00:28:36;;;;;;;5.13;2.90;;;13.10;72.90;;;;;;5077420;28;20508;-89
2021/04/10 00:31:07;;;;;;;4.50;2.93;;;13.00;73.10;;;;;;5077238;28;21234;-88
2021/04/10 00:33:34;;;;;;;6.87;2.97;;;13.00;73.50;;;;;;5073327;28;20536;-87
2021/04/10 00:36:00;;;;;;;8.63;3.03;;;13.10;73.80;;;;;;5060035;28;20520;-86
2021/04/10 00:38:30;;;;;;;7.70;3.27;;;13.00;74.30;;;;;;5077147;28;20512;-87
2021/04/10 00:40:57;;;;;;;5.60;3.03;;;13.00;74.90;;;;;;5078818;28;20415;-86
2021/04/10 00:43:24;;;;;;;8.70;3.67;;;12.90;75.00;;;;;;5061153;28;20412;-87
2021/04/10 00:45:50;;;;;;;6.73;3.13;;;13.10;75.00;;;;;;5055539;28;20481;-88
2021/04/10 00:48:16;;;;;;;5.70;2.97;;;13.00;74.70;;;;;;5075537;28;20519;-88
2021/04/10 00:50:43;;;;;;;6.13;2.63;;;12.90;74.00;;;;;;5075138;28;20490;-87
2021/04/10 00:53:09;;;;;;;8.93;3.03;;;12.90;73.10;;;;;;5075431;28;20813;-88
2021/04/10 00:55:38;;;;;;;5.30;2.90;;;12.90;72.50;;;;;;5060461;28;20535;-87
2021/04/10 00:58:05;;;;;;;7.00;2.70;;;13.00;72.50;;;;;;5054369;28;20431;-88
2021/04/10 01:00:32;;;;;;;5.63;2.60;;;13.10;71.90;;;;;;5041197;28;594401;-88
2021/04/10 01:02:58;;;;;;;3.97;2.33;;;13.10;72.20;;;;;;5077726;28;20430;-88
2021/04/10 01:05:25;;;;;;;5.40;2.30;;;13.20;71.30;;;;;;5074988;28;20419;-87
2021/04/10 01:07:51;;;;;;;4.90;2.50;;;13.30;70.80;;;;;;5076730;28;20549;-89
2021/04/10 01:10:17;;;;;;;6.40;2.33;;;13.30;70.30;;;;;;5074490;28;20499;-89
2021/04/10 01:12:57;;;;;;;5.40;2.30;;;13.30;69.40;;;;;;5076717;28;20966;-87
2021/04/10 01:15:32;;;;;;;6.07;2.27;;;13.40;68.90;;;;;;5073848;28;20523;-86
2021/04/10 01:18:05;;;;;;;5.53;2.00;;;13.40;68.40;;;;;;5075931;28;20398;-87
2021/04/10 01:20:50;;;;;;;4.53;1.73;;;13.40;68.50;;;;;;5073709;28;20987;-87
2021/04/10 01:23:37;;;;;;;4.73;2.40;;;13.40;68.30;;;;;;5064828;28;20515;-88
2021/04/10 01:26:28;;;;;;;4.07;1.80;;;13.40;68.40;;;;;;5054795;28;20423;-87
2021/04/10 01:28:58;;;;;;;6.20;2.17;;;13.60;68.40;;;;;;5070479;28;20539;-87
2021/04/10 01:31:31;;;;;;;4.00;1.93;;;13.60;68.00;;;;;;5075447;28;20426;-88
2021/04/10 01:34:03;;;;;;;5.93;1.77;;;13.60;68.10;;;;;;5075587;28;20764;-87
2021/04/10 01:36:33;;;;;;;4.43;2.10;;;13.60;67.80;;;;;;5080003;28;20467;-86
2021/04/10 01:39:01;;;;;;;4.30;2.00;;;13.70;67.90;;;;;;5078389;28;20847;-86
2021/04/10 01:41:30;;;;;;;4.60;2.10;;;13.60;67.80;;;;;;5073940;28;20487;-86
2021/04/10 01:43:59;;;;;;;6.53;1.90;;;13.60;68.10;;;;;;5091700;28;20423;-86
2021/04/10 01:46:26;;;;;;;4.30;1.80;;;13.70;68.30;;;;;;5096223;28;20544;-85
2021/04/10 01:48:54;;;;;;;5.17;1.83;;;13.70;68.10;;;;;;5085542;28;20488;-85
2021/04/10 01:51:20;;;;;;;3.97;1.70;;;13.70;68.20;;;;;;5079818;28;20476;-85
2021/04/10 01:53:48;;;;;;;5.27;1.90;;;13.70;68.30;;;;;;5077948;28;20486;-86
2021/04/10 01:56:18;;;;;;;3.53;1.77;;;13.70;68.30;;;;;;5083669;28;20486;-86
2021/04/10 01:58:45;;;;;;;6.30;1.83;;;13.60;68.30;;;;;;5080427;28;20559;-87
2021/04/10 02:01:13;;;;;;;4.40;1.83;;;13.70;68.70;;;;;;5071275;28;20515;-86
2021/04/10 02:03:43;;;;;;;4.13;1.60;;;13.50;68.70;;;;;;5060311;28;20453;-87
2021/04/10 02:06:10;;;;;;;8.83;2.30;;;13.60;68.90;;;;;;5060204;28;20459;-86
2021/04/10 02:08:38;;;;;;;5.83;2.30;;;13.60;68.80;;;;;;5073118;28;20535;-86
2021/04/10 02:11:06;;;;;;;3.43;1.83;;;13.60;68.90;;;;;;5072697;28;20516;-87
2021/04/10 02:13:34;;;;;;;5.40;1.90;;;13.60;69.00;;;;;;5075971;28;20470;-88
2021/04/10 02:16:01;;;;;;;3.77;1.90;;;13.70;69.00;;;;;;5077750;28;20925;-87
2021/04/10 02:18:28;;;;;;;5.53;2.10;;;13.70;69.10;;;;;;5079045;28;20552;-88
2021/04/10 02:20:55;;;;;;;5.10;1.80;;;13.70;69.10;;;;;;5082042;28;20514;-88
2021/04/10 02:23:22;;;;;;;5.93;2.00;;;13.60;69.00;;;;;;5083075;28;20434;-87
2021/04/10 02:25:48;;;;;;;8.53;1.60;;;13.60;69.20;;;;;;5070518;28;21006;-87
2021/04/10 02:28:15;;;;;;;5.80;1.80;;;13.60;69.50;;;;;;5079593;28;20484;-88
2021/04/10 02:30:42;;;;;;;5.33;1.80;;;13.50;69.80;;;;;;5082022;28;20475;-86
2021/04/10 02:33:14;;;;;;;3.77;1.70;;;13.60;69.60;;;;;;5080925;28;20428;-87
2021/04/10 02:35:44;;;;;;;4.67;1.90;;;13.60;69.70;;;;;;5084117;28;20462;-87
2021/04/10 02:38:12;;;;;;;4.37;1.83;;;13.60;69.70;;;;;;5080600;28;20526;-87
2021/04/10 02:40:41;;;;;;;4.30;1.80;;;13.60;69.90;;;;;;5079909;28;20470;-87
2021/04/10 02:43:10;;;;;;;6.80;1.67;;;13.50;70.10;;;;;;5072616;28;21028;-87
2021/04/10 02:45:38;;;;;;;6.00;2.10;;;13.50;70.40;;;;;;5057897;28;20469;-86
2021/04/10 02:48:08;;;;;;;5.10;1.87;;;13.50;70.60;;;;;;5065266;28;20833;-87
2021/04/10 02:50:38;;;;;;;5.47;1.70;;;13.40;70.60;;;;;;5086044;28;20481;-88
2021/04/10 02:53:07;;;;;;;6.23;1.80;;;13.50;71.00;;;;;;5086203;28;20423;-88
2021/04/10 02:55:38;;;;;;;3.00;1.50;;;13.30;71.20;;;;;;5084913;28;20448;-87
2021/04/10 02:58:07;;;;;;;6.87;1.97;;;13.50;71.40;;;;;;5075244;28;20477;-88
2021/04/10 03:00:34;;;;;;;5.87;2.03;;;13.40;71.50;;;;;;5064991;28;20488;-88
2021/04/10 03:03:03;;;;;;;6.87;1.87;;;13.40;71.50;;;;;;5083160;22;21021;-85
2021/04/10 03:05:30;;;;;;;4.17;1.93;;;13.30;71.70;;;;;;5077773;28;20475;-86
2021/04/10 03:07:57;;;;;;;4.00;1.63;;;13.40;71.90;;;;;;5075813;28;21013;-86
2021/04/10 03:10:25;;;;;;;4.30;2.07;;;13.40;71.90;;;;;;5058466;28;20517;-83
2021/04/10 03:12:53;;;;;;;4.30;1.87;;;13.30;72.10;;;;;;5074968;28;20551;-84
2021/04/10 03:15:20;;;;;;;4.13;1.70;;;13.40;72.50;;;;;;5079427;28;20430;-87
2021/04/10 03:17:48;;;;;;;3.57;1.43;;;13.40;72.40;;;;;;5078621;28;20512;-87
2021/04/10 03:20:16;;;;;;;4.40;1.93;;;13.30;72.70;;;;;;5076826;28;20554;-84
2021/04/10 03:22:44;;;;;;;5.37;1.40;;;13.30;73.10;;;;;;5078742;28;20447;-88
2021/04/10 03:25:12;;;;;;;6.43;1.90;;;13.20;73.40;;;;;;5078298;28;20490;-85
2021/04/10 03:27:39;;;;;;;4.47;2.10;;;13.30;73.30;;;;;;5078798;28;20519;-85
2021/04/10 03:30:07;;;;;;;6.23;1.80;;;13.30;73.40;;;;;;5072584;28;20819;-85
2021/04/10 03:32:34;;;;;;;4.87;1.80;;;13.20;73.30;;;;;;5069860;28;20457;-86
2021/04/10 03:35:01;;;;;;;5.47;1.90;;;13.20;73.50;;;;;;5080300;28;20454;-86
2021/04/10 03:37:29;;;;;;;4.40;1.90;;;13.30;73.70;;;;;;5082569;28;20538;-86
2021/04/10 03:39:56;;;;;;;5.10;1.93;;;13.30;73.80;;;;;;5083988;28;20444;-86
2021/04/10 03:42:35;;;;;;;4.30;1.80;;;13.20;74.20;;;;;;5070471;28;20476;-88
2021/04/10 03:45:03;;;;;;;3.60;1.63;;;13.20;74.70;;;;;;5076840;28;20502;-85
2021/04/10 03:47:29;;;;;;;5.60;1.83;;;13.20;75.00;;;;;;5070570;28;20863;-85
2021/04/10 03:49:55;;;;;;;4.57;1.60;;;13.20;75.60;;;;;;5059879;28;20799;-84
2021/04/10 03:52:22;;;;;;;5.80;2.13;;;13.20;76.20;;;;;;5072147;28;20547;-84
2021/04/10 03:54:48;;;;;;;4.63;1.70;;;13.20;76.90;;;;;;5084180;28;20434;-86
2021/04/10 03:57:15;;;;;;;10.17;1.70;;;13.20;77.40;;;;;;5086540;28;20463;-85
2021/04/10 03:59:42;;;;;;;6.03;2.30;;;13.10;77.90;;;;;;5084625;28;20414;-84
2021/04/10 04:02:09;;;;;;;7.03;1.80;;;13.10;78.70;;;;;;5090632;28;20450;-84
2021/04/10 04:04:36;;;;;;;3.73;1.67;;;13.10;79.90;;;;;;5084060;28;20419;-84
2021/04/10 04:07:03;;;;;;;3.17;1.43;;;13.10;80.20;;;;;;5083312;28;20419;-84
2021/04/10 04:09:29;;;;;;;11.77;1.87;;;13.10;80.00;;;;;;5082016;28;20426;-85
2021/04/10 04:11:55;;;;;;;4.20;1.77;;;13.10;80.00;;;;;;5082587;28;20561;-85
2021/04/10 04:14:22;;;;;;;3.90;1.57;;;13.20;80.10;;;;;;5081855;28;20456;-85
2021/04/10 04:16:49;;;;;;;5.73;1.80;;;13.10;80.90;;;;;;5081884;28;20473;-85
2021/04/10 04:19:16;;;;;;;4.67;1.67;;;13.10;81.50;;;;;;5086998;28;20452;-86
2021/04/10 04:21:43;;;;;;;5.13;2.00;;;13.10;81.70;;;;;;5084330;28;20503;-86
2021/04/10 04:24:09;;;;;;;5.90;1.60;;;13.00;82.40;;;;;;5084702;28;20452;-85
2021/04/10 04:26:35;;;;;;;4.37;2.07;;;13.10;82.10;;;;;;5085530;28;20468;-85
2021/04/10 04:29:02;;;;;;;4.67;1.53;;;13.00;82.00;;;;;;5087511;28;20482;-85
2021/04/10 04:31:28;;;;;;;5.10;2.10;;;13.00;82.10;;;;;;5079380;28;20449;-85
2021/04/10 04:33:55;;;;;;;3.30;1.70;;;13.10;82.20;;;;;;5083015;28;20422;-85
2021/04/10 04:36:22;;;;;;;7.93;2.53;;;13.00;82.30;;;;;;5089773;28;20462;-87
2021/04/10 04:38:48;;;;;;;7.20;1.90;;;12.90;82.80;;;;;;5094292;28;20436;-86
2021/04/10 04:41:15;;;;;;;4.40;1.87;;;12.90;83.20;;;;;;5080013;28;20476;-85
2021/04/10 04:43:41;;;;;;;5.20;1.50;;;12.90;83.10;;;;;;5088685;28;20512;-87
2021/04/10 04:46:08;;;;;;;5.60;2.13;;;12.90;83.00;;;;;;5092402;28;20458;-86
2021/04/10 04:48:35;;;;;;;4.77;1.90;;;12.90;83.00;;;;;;5089336;28;20459;-85
2021/04/10 04:51:01;;;;;;;3.63;1.50;;;12.90;83.10;;;;;;5074939;28;20430;-85
2021/04/10 04:53:28;;;;;;;4.40;1.60;;;12.70;83.10;;;;;;5067215;28;20448;-85
2021/04/10 04:55:55;;;;;;;5.53;1.70;;;12.80;83.60;;;;;;5066297;28;20425;-84
2021/04/10 04:58:22;;;;;;;5.30;1.63;;;12.80;83.30;;;;;;5070352;28;20456;-85
2021/04/10 05:00:48;;;;;;;3.80;1.47;;;12.70;83.30;;;;;;5085036;28;20498;-85
2021/04/10 05:03:14;;;;;;;4.33;1.70;;;12.70;83.90;;;;;;5085982;28;20469;-86
2021/04/10 05:05:41;;;;;;;10.77;1.70;;;12.70;85.00;;;;;;5086905;28;20426;-84
2021/04/10 05:08:07;;;;;;;4.10;1.60;;;12.50;87.20;;;;;;5086483;28;20423;-85
2021/04/10 05:10:35;;;;;;;3.70;1.50;;;12.40;89.60;;;;;;5087817;28;20515;-86
2021/04/10 05:13:01;;;;;;;5.50;1.80;;;12.30;91.30;;;;;;5086974;28;20474;-87
2021/04/10 05:15:29;;;;;;;5.10;2.03;;;12.20;92.50;;;;;;5086990;28;20467;-86
2021/04/10 05:17:55;;;;;;;5.83;2.27;;;12.10;93.50;;;;;;5088716;28;20541;-85
2021/04/10 05:20:21;;;;;;;5.33;2.20;;;12.00;93.80;;;;;;5086888;28;20453;-86
2021/04/10 05:22:53;;;;;;;3.23;1.90;;;12.00;94.40;;;;;;5084886;28;20502;-86
2021/04/10 05:25:19;;;;;;;5.20;1.43;;;11.90;94.70;;;;;;5085274;28;20422;-87
2021/04/10 05:27:48;;;;;;;4.80;1.70;;;11.90;95.00;;;;;;5083883;28;20476;-87
2021/04/10 05:30:15;;;;;;;4.00;1.70;;;12.00;95.10;;;;;;5082669;28;20439;-87
2021/04/10 05:32:42;;;;;;;5.13;1.67;;;12.00;95.40;;;;;;5083583;28;20555;-87
2021/04/10 05:35:09;;;;;;;4.43;2.00;;;11.90;95.20;;;;;;5078643;28;20471;-86
2021/04/10 05:37:36;;;;;;;4.10;1.60;;;11.90;95.20;;;;;;5062355;28;20576;-86
2021/04/10 05:40:03;;;;;;;3.43;1.60;;;11.90;95.20;;;;;;5063853;28;20432;-86
2021/04/10 05:42:29;;;;;;;6.13;1.70;;;12.00;94.90;;;;;;5082476;28;20483;-86
2021/04/10 05:44:57;;;;;;;5.90;1.87;;;12.10;94.80;;;;;;5082511;28;21026;-86
2021/04/10 05:47:23;;;;;;;5.37;1.57;;;12.10;94.70;;;;;;5081633;28;20439;-86
2021/04/10 05:49:50;;;;;;;4.50;2.00;;;12.00;94.70;;;;;;5068185;28;20464;-86
2021/04/10 05:52:17;;;;;;;3.53;1.70;;;12.10;94.30;;;;;;5082097;28;20475;-86
2021/04/10 05:54:43;;;;;;;6.33;2.00;;;12.00;94.20;;;;;;5085702;28;21067;-86
2021/04/10 05:57:10;;;;;;;4.93;2.03;;;12.10;94.50;;;;;;5084342;28;20555;-86
2021/04/10 05:59:37;;;;;;;4.03;1.40;;;12.20;93.80;;;;;;5084814;28;20467;-86
2021/04/10 06:02:05;;;;;;;5.00;1.80;;;12.20;93.70;;;;;;5082722;28;20484;-86
2021/04/10 06:04:33;;;;;;;3.63;1.50;;;12.30;93.40;;;;;;5077097;28;20500;-85
2021/04/10 06:06:59;;;;;;;7.47;1.83;;;12.30;93.20;;;;;;5085805;28;20448;-87
2021/04/10 06:09:25;;;;;;;4.60;1.80;;;12.30;92.80;;;;;;5086089;28;20942;-87
2021/04/10 06:11:52;;;;;;;3.30;1.70;;;12.40;92.80;;;;;;5083453;28;20475;-87
2021/04/10 06:14:19;;;;;;;4.20;1.77;;;12.40;92.60;;;;;;5083749;28;21065;-88
2021/04/10 06:16:46;;;;;;;4.43;2.30;;;12.50;92.50;;;;;;5079522;28;20502;-87
2021/04/10 06:19:13;;;;;;;6.70;2.00;;;12.50;92.30;;;;;;5081218;28;20438;-86
2021/04/10 06:21:40;;;;;;;3.83;1.70;;;12.60;92.30;;;;;;5062571;28;20580;-85
2021/04/10 06:24:07;;;;;;;3.60;2.00;;;12.50;92.30;;;;;;5064556;28;20487;-87
2021/04/10 06:26:34;;;;;;;6.70;2.00;;;12.50;92.40;;;;;;5067276;28;20982;-85
2021/04/10 06:29:00;;;;;;;5.43;2.40;;;12.50;92.30;;;;;;5077154;28;20427;-85
2021/04/10 06:31:26;;;;;;;4.53;1.60;;;12.40;92.40;;;;;;5086821;28;20475;-86
2021/04/10 06:33:53;;;;;;;5.67;1.70;;;12.50;92.60;;;;;;5086179;28;20453;-84
2021/04/10 06:36:20;;;;;;;5.07;2.00;;;12.60;92.50;;;;;;5091487;28;20502;-87
2021/04/10 06:38:47;;;;;;;4.90;2.40;;;12.60;92.50;;;;;;5088088;28;20453;-86
2021/04/10 06:41:14;;;;;;;6.77;1.80;;;12.60;92.60;;;;;;5082083;28;20439;-86
2021/04/10 06:43:42;;;;;;;3.00;1.50;;;12.60;92.50;;;;;;5061561;28;20452;-85
2021/04/10 06:46:09;;;;;;;6.50;2.00;;;12.60;92.70;;;;;;5079235;28;20426;-85
2021/04/10 06:48:38;;;;;;;5.13;1.70;;;12.60;92.80;;;;;;5076975;28;20444;-86
2021/04/10 06:51:05;;;;;;;3.30;1.27;;;12.60;93.00;;;;;;5078856;28;20446;-85
2021/04/10 06:53:34;;;;;;;4.50;1.60;;;12.70;92.90;;;;;;5078466;28;20461;-85
2021/04/10 06:56:04;;;;;;;5.03;1.70;;;12.70;92.80;;;;;;5084060;28;20463;-86
2021/04/10 06:58:36;;;;;;;4.93;2.00;;;12.60;93.00;;;;;;5070129;28;20528;-86
2021/04/10 07:01:03;;;;;;;4.87;1.90;;;12.60;93.00;;;;;;5074816;28;20510;-86
2021/04/10 07:03:33;;;;;;;4.90;1.73;;;12.70;93.80;;;;;;5077550;28;20893;-86
2021/04/10 07:05:59;;;;;;;4.90;1.70;;;12.70;94.70;;;;;;5101502;28;20418;-85
2021/04/10 07:08:26;;;;;;;5.80;2.33;;;12.60;95.20;;;;;;5101239;28;20437;-87
2021/04/10 07:10:55;;;;;;;3.63;1.83;;;12.50;95.80;;;;;;5081847;28;20511;-86
2021/04/10 07:13:26;;;;;;;5.03;1.77;;;12.50;96.50;;;;;;5089845;28;20468;-85
2021/04/10 07:15:52;;;;;;;4.83;1.73;;;12.50;97.00;;;;;;5087954;28;20457;-85
2021/04/10 07:18:19;;;;;;;9.07;1.90;;;12.50;96.40;;;;;;5077538;28;20570;-86
2021/04/10 07:20:45;;;;;;;5.80;2.00;;;12.60;96.80;;;;;;5076262;28;20437;-87
2021/04/10 07:23:13;;;;;;;5.63;2.20;;;12.60;96.70;;;;;;5077538;28;20488;-85
2021/04/10 07:25:41;;;;;;;5.30;2.30;;;12.70;96.00;;;;;;5079904;28;20457;-85
2021/04/10 07:28:28;;;;;;;6.70;1.87;;;12.70;96.20;;;;;;5083578;28;20456;-85
2021/04/10 07:30:58;;;;;;;5.10;1.47;;;12.80;95.80;;;;;;5078190;28;20537;-84
2021/04/10 07:33:25;;;;;;;3.30;1.50;;;12.80;95.50;;;;;;5080766;28;21024;-85
2021/04/10 07:35:52;;;;;;;4.23;1.80;;;12.90;95.60;;;;;;5082217;28;21048;-79
2021/04/10 07:38:37;;;;;;;5.97;1.90;;;12.90;95.50;;;;;;5079562;28;20972;-85
2021/04/10 07:41:05;;;;;;;6.33;1.50;;;12.80;95.10;;;;;;5083112;28;20886;-84
2021/04/10 07:43:37;;;;;;;3.90;1.83;;;12.80;95.20;;;;;;5070745;28;20442;-85
2021/04/10 07:46:15;;;;;;;4.70;2.30;;;12.80;95.00;;;;;;5083325;28;20527;-87
2021/04/10 07:49:01;;;;;;;3.87;1.53;;;12.90;95.20;;;;;;5077157;28;21036;-86
2021/04/10 07:51:28;;;;;;;3.10;1.50;;;12.80;95.20;;;;;;5078998;28;20414;-84
2021/04/10 07:53:55;;;;;;;5.37;2.00;;;12.80;95.40;;;;;;5077542;28;20768;-85
2021/04/10 07:56:21;;;;;;;5.57;2.50;;;12.70;95.20;;;;;;5076716;28;20448;-85
2021/04/10 07:58:48;;;;;;;5.70;2.30;;;12.70;95.50;;;;;;5078210;28;20458;-85
2021/04/10 08:01:16;;;;;;;5.60;1.60;;;12.80;95.40;;;;;;5081667;28;20456;-84
2021/04/10 08:03:44;;;;;;;4.33;1.50;;;12.70;95.50;;;;;;5079897;28;20572;-83
2021/04/10 08:06:19;;;;;;;4.13;2.10;;;12.70;95.60;;;;;;5080935;28;20464;-84
2021/04/10 08:08:55;;;;;;;4.10;1.70;;;12.70;96.10;;;;;;5080035;28;20474;-83
2021/04/10 08:11:39;;;;;;;3.53;1.57;;;12.70;96.90;;;;;;5083612;28;20449;-82
2021/04/10 08:14:08;;;;;;;6.43;2.33;;;12.70;97.80;;;;;;5083792;28;20896;-81
2021/04/10 08:16:42;;;;;;;4.30;2.03;;;12.60;98.40;;;;;;5082962;28;20482;-84
2021/04/10 08:19:09;;;;;;;4.80;1.60;;;12.60;98.80;;;;;;5085457;28;20431;-80
2021/04/10 08:21:45;;;;;;;4.43;1.80;;;12.60;98.90;;;;;;5083311;28;20507;-81
2021/04/10 08:24:41;;;;;;;4.00;1.90;;;12.60;98.50;;;;;;5079025;28;20420;-84
2021/04/10 08:27:09;;;;;;;4.03;2.00;;;12.60;99.10;;;;;;5040767;28;20498;-83
2021/04/10 08:29:38;;;;;;;3.50;1.87;;;12.60;99.00;;;;;;5082378;28;20508;-83
2021/04/10 08:32:05;;;;;;;4.73;1.57;;;12.70;98.70;;;;;;5084009;28;20472;-83
2021/04/10 08:34:33;;;;;;;4.13;1.73;;;12.70;98.30;;;;;;5095157;28;20431;-83
2021/04/10 08:37:01;;;;;;;4.57;1.67;;;12.80;97.90;;;;;;5095412;28;20555;-84
2021/04/10 08:39:31;;;;;;;4.27;1.60;;;12.80;97.60;;;;;;5096122;28;20442;-82
2021/04/10 08:42:00;;;;;;;4.33;2.07;;;12.70;97.60;;;;;;5096062;28;20469;-82
2021/04/10 08:44:30;;;;;;;5.03;2.03;;;12.80;97.70;;;;;;5071096;28;20448;-83
2021/04/10 08:46:57;;;;;;;4.10;1.67;;;12.90;98.00;;;;;;5081396;28;20526;-82
2021/04/10 08:49:26;;;;;;;3.27;1.53;;;13.00;97.40;;;;;;5081836;28;20427;-85
2021/04/10 08:51:57;;;;;;;4.23;1.80;;;12.90;96.80;;;;;;5079210;28;20472;-84
2021/04/10 08:54:24;;;;;;;3.63;1.60;;;12.90;96.50;;;;;;5079307;28;20506;-86
2021/04/10 08:56:51;;;;;;;4.00;1.50;;;12.90;96.90;;;;;;5082191;28;20486;-85
2021/04/10 08:59:22;;;;;;;4.90;1.70;;;12.90;97.20;;;;;;5077657;28;20423;-83
2021/04/10 09:02:07;;;;;;;3.67;1.87;;;12.90;97.00;;;;;;5077167;28;20480;-84
2021/04/10 09:05:09;;;;;;;2.93;1.50;;;12.90;97.00;;;;;;5068031;22;20950;-86
2021/04/10 09:08:05;;;;;;;3.10;1.50;;;13.00;97.00;;;;;;4960665;29;20440;-87
2021/04/10 09:10:48;;;;;;;3.50;1.97;;;12.90;96.80;;;;;;4962337;29;20465;-87
2021/04/10 09:13:45;;;;;;;3.17;1.60;;;13.00;96.60;;;;;;5024650;28;20565;-87
2021/04/10 09:16:33;;;;;;;3.50;1.57;;;13.10;96.60;;;;;;5043291;28;20492;-87
2021/04/10 09:19:03;;;;;;;5.17;1.77;;;13.20;96.30;;;;;;5041785;28;20521;-86
2021/04/10 09:21:43;;;;;;;3.90;1.80;;;13.30;96.30;;;;;;5043177;28;20512;-87
2021/04/10 09:24:24;;;;;;;4.73;1.93;;;13.30;95.80;;;;;;5043978;28;20827;-87
2021/04/10 09:27:03;;;;;;;2.77;1.50;;;13.40;95.70;;;;;;5033182;28;20488;-87
2021/04/10 09:29:31;;;;;;;3.50;1.43;;;13.40;94.60;;;;;;5050285;28;20442;-88
2021/04/10 09:32:00;;;;;;;4.70;1.97;;;13.40;94.80;;;;;;5048981;28;20473;-87
2021/04/10 09:34:56;;;;;;;3.57;1.40;;;13.40;94.60;;;;;;5043086;28;20477;-87
2021/04/10 09:37:50;;;;;;;4.80;1.90;;;13.40;94.40;;;;;;5044167;28;20456;-86
2021/04/10 09:40:23;;;;;;;4.97;1.50;;;13.50;94.30;;;;;;5042670;28;20434;-87
2021/04/10 09:42:52;;;;;;;4.40;1.63;;;13.60;93.80;;;;;;5050359;28;20450;-87
2021/04/10 09:45:29;;;;;;;4.30;1.40;;;13.60;94.00;;;;;;5048684;28;21001;-88
2021/04/10 09:48:18;;;;;;;4.20;1.27;;;13.60;93.70;;;;;;5042962;28;20409;-86
2021/04/10 09:50:59;;;;;;;5.13;1.80;;;13.70;93.50;;;;;;5038287;28;20447;-86
2021/04/10 09:53:27;;;;;;;7.77;1.80;;;13.60;93.60;;;;;;5024477;28;20437;-88
2021/04/10 09:56:00;;;;;;;2.83;1.30;;;13.70;93.40;;;;;;5023940;28;20481;-87
2021/04/10 09:58:32;;;;;;;3.40;1.40;;;13.90;93.10;;;;;;5022692;28;21066;-86
2021/04/10 10:01:04;;;;;;;3.60;1.60;;;13.90;92.90;;;;;;5023661;28;20429;-87
2021/04/10 10:03:31;;;;;;;4.37;1.70;;;13.70;93.00;;;;;;5021595;28;20445;-86
2021/04/10 10:06:00;;;;;;;4.00;1.43;;;13.80;93.30;;;;;;5023764;28;20424;-87
2021/04/10 10:08:31;;;;;;;3.37;1.40;;;13.80;93.20;;;;;;5042569;28;20454;-87
2021/04/10 10:11:00;;;;;;;5.27;2.40;;;13.80;92.60;;;;;;5043037;28;20425;-86
2021/04/10 10:13:32;;;;;;;3.60;1.40;;;13.90;92.80;;;;;;5044205;28;20495;-87
2021/04/10 10:16:01;;;;;;;3.33;1.50;;;14.00;92.60;;;;;;5043051;28;20473;-87
2021/04/10 10:18:33;;;;;;;3.67;1.70;;;13.90;92.30;;;;;;5041819;28;20528;-87
2021/04/10 10:21:03;;;;;;;7.73;1.80;;;13.90;92.30;;;;;;5043361;28;20506;-86
2021/04/10 10:23:34;;;;;;;4.10;1.67;;;13.90;92.20;;;;;;5043839;28;20477;-88
2021/04/10 10:26:12;;;;;;;9.23;1.80;;;14.00;92.30;;;;;;5034858;28;20492;-87
2021/04/10 10:28:40;;;;;;;5.00;1.57;;;14.10;92.30;;;;;;5021266;28;20417;-87
2021/04/10 10:31:10;;;;;;;6.13;2.00;;;14.20;91.90;;;;;;5021640;28;20464;-87
2021/04/10 10:33:38;;;;;;;6.80;1.40;;;14.30;91.80;;;;;;5023505;28;20850;-86
2021/04/10 10:36:07;;;;;;;3.33;1.20;;;14.40;91.30;;;;;;5026296;28;20406;-88
2021/04/10 10:38:36;;;;;;;2.57;1.03;;;14.40;91.30;;;;;;5025342;28;20572;-86
2021/04/10 10:41:03;;;;;;;2.80;1.20;;;14.50;91.10;;;;;;5042248;28;20474;-87
2021/04/10 10:43:30;;;;;;;3.30;1.20;;;14.50;91.20;;;;;;5055160;28;20474;-87
2021/04/10 10:45:59;;;;;;;2.70;1.20;;;14.50;90.60;;;;;;5050348;28;20424;-87
2021/04/10 10:48:28;;;;;;;8.03;1.43;;;14.40;90.40;;;;;;5054778;28;20420;-87
2021/04/10 10:50:56;;;;;;;4.00;1.70;;;14.50;90.50;;;;;;5053080;28;20413;-88
2021/04/10 10:53:25;;;;;;;3.70;1.50;;;14.50;90.60;;;;;;5043130;28;20457;-87
2021/04/10 10:56:10;;;;;;;5.47;1.87;;;14.60;90.50;;;;;;5041823;28;20462;-86
2021/04/10 10:58:44;;;;;;;3.00;1.53;;;14.70;90.80;;;;;;5034367;28;20478;-87
2021/04/10 11:01:23;;;;;;;3.97;1.60;;;14.60;90.50;;;;;;5049914;28;20424;-88
2021/04/10 11:03:53;;;;;;;4.27;1.73;;;14.70;90.30;;;;;;5047444;28;20476;-89
2021/04/10 11:06:22;;;;;;;3.67;1.70;;;14.70;90.00;;;;;;5046751;28;20430;-88
2021/04/10 11:08:50;;;;;;;3.07;1.50;;;14.80;90.10;;;;;;5043414;28;20449;-87
2021/04/10 11:11:17;;;;;;;5.27;2.00;;;14.90;89.80;;;;;;5047955;28;20464;-87
2021/04/10 11:13:46;;;;;;;7.10;1.77;;;14.70;89.90;;;;;;5035536;28;20471;-88
2021/04/10 11:16:14;;;;;;;3.60;1.53;;;14.80;89.40;;;;;;5027147;28;20449;-87
2021/04/10 11:18:43;;;;;;;3.93;1.30;;;14.70;89.20;;;;;;5026747;28;20461;-89
2021/04/10 11:21:15;;;;;;;3.00;1.80;;;14.70;89.60;;;;;;5027054;28;20470;-88
2021/04/10 11:24:13;;;;;;;5.77;1.70;;;14.80;89.40;;;;;;5027446;28;20438;-88
2021/04/10 11:26:46;;;;;;;3.60;1.70;;;15.00;89.40;;;;;;5025699;28;20435;-86
2021/04/10 11:29:26;;;;;;;5.67;1.90;;;15.10;88.40;;;;;;5035572;28;20474;-87
2021/04/10 11:32:20;;;;;;;5.23;2.00;;;15.20;87.70;;;;;;5048092;28;20397;-88
2021/04/10 11:35:02;;;;;;;3.37;1.53;;;15.30;88.10;;;;;;5046681;28;20470;-87
2021/04/10 11:37:46;;;;;;;3.77;1.63;;;15.50;87.20;;;;;;5045163;28;20566;-88
2021/04/10 11:40:26;;;;;;;3.37;1.43;;;15.60;86.50;;;;;;5043422;28;20453;-88
2021/04/10 11:42:54;;;;;;;3.57;1.53;;;15.70;85.70;;;;;;5043026;28;20487;-88
2021/04/10 11:45:32;;;;;;;3.60;1.23;;;15.70;85.90;;;;;;5034882;28;20487;-88
2021/04/10 11:48:06;;;;;;;2.93;1.33;;;15.80;85.00;;;;;;5020459;28;20490;-88
2021/04/10 11:50:54;;;;;;;4.30;1.67;;;15.90;84.10;;;;;;5020246;28;20446;-87
2021/04/10 11:53:26;;;;;;;5.20;1.80;;;16.10;83.60;;;;;;5018484;28;20449;-88
2021/04/10 11:55:54;;;;;;;2.90;1.47;;;16.20;82.90;;;;;;5021393;28;20482;-87
2021/04/10 11:58:35;;;;;;;3.40;1.30;;;16.20;82.60;;;;;;5022324;28;20495;-87
2021/04/10 12:01:09;;;;;;;3.77;1.40;;;16.20;82.60;;;;;;5025832;28;20458;-87
2021/04/10 12:03:47;;;;;;;3.43;1.57;;;16.20;82.10;;;;;;5025818;28;20588;-88
2021/04/10 12:06:26;;;;;;;3.20;1.20;;;16.30;81.40;;;;;;5026257;28;20432;-88
2021/04/10 12:08:53;;;;;;;4.80;2.00;;;16.40;81.00;;;;;;5025645;28;20398;-87
2021/04/10 12:11:24;;;;;;;3.47;1.57;;;16.30;81.30;;;;;;5021837;28;20953;-88
2021/04/10 12:13:50;;;;;;;4.30;1.30;;;16.40;81.40;;;;;;5027626;28;20458;-87
2021/04/10 12:16:21;;;;;;;3.00;1.03;;;16.50;81.00;;;;;;5027426;28;20515;-87
2021/04/10 12:18:47;;;;;;;3.13;1.53;;;16.80;81.00;;;;;;5024026;28;20478;-87
2021/04/10 12:21:14;;;;;;;3.17;1.27;;;17.00;79.90;;;;;;5027368;28;20461;-88
2021/04/10 12:23:45;;;;;;;2.80;1.30;;;16.90;78.30;;;;;;5033097;28;20468;-87
2021/04/10 12:26:12;;;;;;;3.60;1.30;;;16.80;79.00;;;;;;5036733;28;20443;-88
2021/04/10 12:28:39;;;;;;;2.97;1.23;;;16.70;79.90;;;;;;5034476;28;20463;-88
2021/04/10 12:31:10;;;;;;;3.50;1.30;;;16.80;79.50;;;;;;5026758;28;20464;-88
2021/04/10 12:33:38;;;;;;;2.90;1.60;;;17.00;78.90;;;;;;5030460;28;20561;-87
2021/04/10 12:36:05;;;;;;;3.27;1.40;;;17.10;77.60;;;;;;5044009;28;20436;-87
2021/04/10 12:38:33;;;;;;;3.90;1.53;;;16.90;77.30;;;;;;5043158;28;20464;-87
2021/04/10 12:41:00;;;;;;;4.20;1.30;;;16.90;77.80;;;;;;5044027;28;20493;-88
2021/04/10 12:43:26;;;;;;;3.83;1.00;;;17.00;77.00;;;;;;5044477;28;20466;-88
2021/04/10 12:45:54;;;;;;;3.00;1.20;;;17.10;76.10;;;;;;5044160;28;20489;-88
2021/04/10 12:48:20;;;;;;;2.77;1.20;;;17.40;74.60;;;;;;5044137;28;20531;-88
2021/04/10 12:50:47;;;;;;;3.33;1.23;;;17.40;74.40;;;;;;5046275;28;20517;-86
2021/04/10 12:53:13;;;;;;;3.07;1.30;;;17.30;73.60;;;;;;5051892;28;20472;-87
2021/04/10 12:55:39;;;;;;;2.87;1.10;;;17.20;73.60;;;;;;5053209;28;20438;-86
2021/04/10 12:58:06;;;;;;;4.07;1.40;;;16.90;74.40;;;;;;5044649;28;20465;-87
2021/04/10 13:00:33;;;;;;;2.90;1.50;;;16.90;74.20;;;;;;5053269;28;20484;-86